createdAt,value
2022-08-28T00:02:19.492Z,20.50
2022-08-28T00:04:47.938Z,20.50
2022-08-28T00:07:18.331Z,20.50
2022-08-28T00:09:46.677Z,20.50
2022-08-28T00:14:43.691Z,20.50
2022-08-28T00:17:13.108Z,20.40
2022-08-28T00:24:40.068Z,20.40
2022-08-28T00:27:25.946Z,20.40
2022-08-28T00:29:54.352Z,20.40
2022-08-28T00:32:25.140Z,20.40
2022-08-28T00:34:53.827Z,20.40
2022-08-28T00:37:24.660Z,20.40
2022-08-28T00:39:54.840Z,20.40
2022-08-28T00:44:51.901Z,20.40
2022-08-28T00:47:20.367Z,20.40
2022-08-28T00:49:53.954Z,20.40
2022-08-28T00:52:23.759Z,20.40
2022-08-28T00:55:00.010Z,20.40
2022-08-28T00:57:32.602Z,20.30
2022-08-28T01:05:00.265Z,20.30
2022-08-28T01:07:28.623Z,20.30
2022-08-28T01:09:59.347Z,20.30
2022-08-28T01:12:31.093Z,20.30
2022-08-28T01:15:02.593Z,20.30
2022-08-28T01:17:35.166Z,20.20
2022-08-28T01:20:09.187Z,20.20
2022-08-28T01:22:42.983Z,20.20
2022-08-28T01:25:19.371Z,20.20
2022-08-28T01:27:47.968Z,20.20
2022-08-28T01:30:21.546Z,20.20
2022-08-28T01:32:53.692Z,20.20
2022-08-28T01:35:31.103Z,20.10
2022-08-28T01:38:00.056Z,20.10
2022-08-28T01:40:34.994Z,20.10
2022-08-28T01:43:10.052Z,20.10
2022-08-28T01:48:08.859Z,20.10
2022-08-28T01:50:37.808Z,20.10
2022-08-28T01:53:08.140Z,20.00
2022-08-28T01:55:42.978Z,20.10
2022-08-28T01:58:12.216Z,20.00
2022-08-28T02:05:39.896Z,19.90
2022-08-28T02:08:09.537Z,19.90
2022-08-28T02:10:43.589Z,19.90
2022-08-28T02:13:13.472Z,19.80
2022-08-28T02:15:44.545Z,19.80
2022-08-28T02:18:14.697Z,19.80
2022-08-28T02:23:12.380Z,19.70
2022-08-28T02:28:11.386Z,19.70
2022-08-28T02:30:41.032Z,19.70
2022-08-28T02:33:09.512Z,19.70
2022-08-28T02:35:40.233Z,19.70
2022-08-28T02:38:09.189Z,19.60
2022-08-28T02:43:08.276Z,19.60
2022-08-28T02:45:36.884Z,19.60
2022-08-28T02:48:05.882Z,19.60
2022-08-28T02:53:13.272Z,19.50
2022-08-28T02:55:41.712Z,19.50
2022-08-28T02:58:11.433Z,19.50
2022-08-28T03:00:42.001Z,19.50
2022-08-28T03:03:10.371Z,19.50
2022-08-28T03:05:38.669Z,19.50
2022-08-28T03:10:35.693Z,19.50
2022-08-28T03:13:04.303Z,19.40
2022-08-28T03:15:34.264Z,19.50
2022-08-28T03:18:02.608Z,19.40
2022-08-28T03:20:36.712Z,19.40
2022-08-28T03:23:22.962Z,19.40
2022-08-28T03:25:52.544Z,19.40
2022-08-28T03:28:20.930Z,19.40
2022-08-28T03:30:50.874Z,19.40
2022-08-28T03:33:19.583Z,19.40
2022-08-28T03:40:48.126Z,19.40
2022-08-28T03:43:19.544Z,19.40
2022-08-28T03:45:58.838Z,19.40
2022-08-28T03:48:29.970Z,19.30
2022-08-28T03:50:59.819Z,19.40
2022-08-28T03:53:30.486Z,19.30
2022-08-28T03:58:28.554Z,19.30
2022-08-28T04:00:58.345Z,19.30
2022-08-28T04:03:27.410Z,19.30
2022-08-28T04:05:55.799Z,19.30
2022-08-28T04:10:53.101Z,19.30
2022-08-28T04:13:23.971Z,19.20
2022-08-28T04:16:06.343Z,19.20
2022-08-28T04:18:35.637Z,19.20
2022-08-28T04:21:08.129Z,19.20
2022-08-28T04:23:38.131Z,19.20
2022-08-28T04:26:07.121Z,19.20
2022-08-28T04:28:36.061Z,19.20
2022-08-28T04:31:07.991Z,19.10
2022-08-28T04:33:37.020Z,19.10
2022-08-28T04:36:08.071Z,19.10
2022-08-28T04:38:40.354Z,19.10
2022-08-28T04:41:15.465Z,19.10
2022-08-28T04:43:44.631Z,19.00
2022-08-28T04:46:16.006Z,19.00
2022-08-28T04:48:44.944Z,19.00
2022-08-28T04:51:15.540Z,19.00
2022-08-28T04:53:44.948Z,19.00
2022-08-28T04:56:15.627Z,19.00
2022-08-28T04:58:45.476Z,19.00
2022-08-28T05:01:19.356Z,19.00
2022-08-28T05:03:49.279Z,19.00
2022-08-28T05:06:18.179Z,19.00
2022-08-28T05:08:46.549Z,19.00
2022-08-28T05:11:33.617Z,19.00
2022-08-28T05:14:04.858Z,19.00
2022-08-28T05:16:40.580Z,19.00
2022-08-28T05:21:39.807Z,19.00
2022-08-28T05:24:09.155Z,19.10
2022-08-28T05:26:40.183Z,19.10
2022-08-28T05:29:09.859Z,19.10
2022-08-28T05:31:41.421Z,19.10
2022-08-28T05:36:40.791Z,19.20
2022-08-28T05:39:11.568Z,19.20
2022-08-28T05:41:43.159Z,19.20
2022-08-28T05:44:14.392Z,19.20
2022-08-28T05:46:47.659Z,19.20
2022-08-28T05:49:20.390Z,19.30
2022-08-28T05:52:00.566Z,19.30
2022-08-28T05:54:29.187Z,19.30
2022-08-28T05:56:57.529Z,19.40
2022-08-28T05:59:31.929Z,19.40
2022-08-28T06:02:04.360Z,19.50
2022-08-28T06:04:33.079Z,19.50
2022-08-28T06:07:01.531Z,19.60
2022-08-28T06:09:30.636Z,19.60
2022-08-28T06:12:02.710Z,19.70
2022-08-28T06:14:32.656Z,19.70
2022-08-28T06:17:03.071Z,19.80
2022-08-28T06:19:36.360Z,19.80
2022-08-28T06:22:09.530Z,19.80
2022-08-28T06:24:38.144Z,19.90
2022-08-28T06:27:06.836Z,19.80
2022-08-28T06:32:06.184Z,19.90
2022-08-28T06:34:34.572Z,19.90
2022-08-28T06:37:03.007Z,19.90
2022-08-28T06:42:00.116Z,20.10
2022-08-28T06:44:32.037Z,20.20
2022-08-28T06:47:00.671Z,20.20
2022-08-28T06:49:30.317Z,20.30
2022-08-28T06:51:58.752Z,20.30
2022-08-28T06:56:55.695Z,20.40
2022-08-28T06:59:24.107Z,20.40
2022-08-28T07:01:54.742Z,20.50
2022-08-28T07:06:54.858Z,20.70
2022-08-28T07:09:24.425Z,20.80
2022-08-28T07:11:53.339Z,20.80
2022-08-28T07:16:51.882Z,20.90
2022-08-28T07:19:20.465Z,21.00
2022-08-28T07:21:48.994Z,21.00
2022-08-28T07:24:19.305Z,21.00
2022-08-28T07:26:48.832Z,21.00
2022-08-28T07:29:18.351Z,21.10
2022-08-28T07:31:50.287Z,21.20
2022-08-28T07:34:27.288Z,21.30
2022-08-28T07:36:58.167Z,21.60
2022-08-28T07:39:27.859Z,21.90
2022-08-28T07:44:42.600Z,22.20
2022-08-28T07:47:11.766Z,22.30
2022-08-28T07:49:40.685Z,22.30
2022-08-28T07:52:10.650Z,22.40
2022-08-28T07:54:40.775Z,22.40
2022-08-28T07:57:10.961Z,22.40
2022-08-28T07:59:42.828Z,22.50
2022-08-28T08:02:12.302Z,22.50
2022-08-28T08:04:40.984Z,22.50
2022-08-28T08:09:41.486Z,22.60
2022-08-28T08:12:11.581Z,22.70
2022-08-28T08:14:40.966Z,22.80
2022-08-28T08:17:10.727Z,22.90
2022-08-28T08:19:39.305Z,22.90
2022-08-28T08:22:07.871Z,22.90
2022-08-28T08:24:36.247Z,23.00
2022-08-28T08:27:06.698Z,23.00
2022-08-28T08:29:38.241Z,23.10
2022-08-28T08:32:10.154Z,23.10
2022-08-28T08:34:42.469Z,23.20
2022-08-28T08:37:12.668Z,23.20
2022-08-28T08:39:43.666Z,23.30
2022-08-28T08:42:25.072Z,23.40
2022-08-28T08:44:55.924Z,23.60
2022-08-28T08:47:33.618Z,23.80
2022-08-28T08:50:08.039Z,24.20
2022-08-28T08:52:51.498Z,24.20
2022-08-28T08:55:28.144Z,24.60
2022-08-28T08:58:07.783Z,25.00
2022-08-28T09:00:44.297Z,25.40
2022-08-28T09:03:21.938Z,25.90
2022-08-28T09:05:56.975Z,26.80
2022-08-28T09:08:36.796Z,27.60
2022-08-28T09:11:19.333Z,28.30
2022-08-28T09:13:56.202Z,28.60
2022-08-28T09:16:32.445Z,28.60
2022-08-28T09:19:02.171Z,28.40
2022-08-28T09:21:34.777Z,28.20
2022-08-28T09:24:10.838Z,28.00
2022-08-28T09:26:40.874Z,27.70
2022-08-28T09:29:18.956Z,27.70
2022-08-28T09:31:47.372Z,27.70
2022-08-28T09:34:27.348Z,27.50
2022-08-28T09:36:57.315Z,27.50
2022-08-28T09:39:31.486Z,27.40
2022-08-28T09:42:33.076Z,27.40
2022-08-28T09:45:14.959Z,27.40
2022-08-28T09:47:49.619Z,27.50
2022-08-28T09:50:22.563Z,27.60
2022-08-28T09:52:52.249Z,27.80
2022-08-28T09:55:29.487Z,28.30
2022-08-28T09:57:58.094Z,28.70
2022-08-28T10:00:30.727Z,28.70
2022-08-28T10:03:09.733Z,29.40
2022-08-28T10:05:48.820Z,29.40
2022-08-28T10:08:43.502Z,30.10
2022-08-28T10:11:22.151Z,30.70
2022-08-28T10:14:03.055Z,31.50
2022-08-28T10:16:41.480Z,31.90
2022-08-28T10:19:25.448Z,32.40
2022-08-28T10:22:06.944Z,32.80
2022-08-28T10:24:56.303Z,33.30
2022-08-28T10:27:44.101Z,33.50
2022-08-28T10:30:17.629Z,33.80
2022-08-28T10:33:15.774Z,34.00
2022-08-28T10:35:54.655Z,34.00
2022-08-28T10:38:36.429Z,33.80
2022-08-28T10:41:11.737Z,33.70
2022-08-28T10:43:47.997Z,33.60
2022-08-28T10:46:27.026Z,33.50
2022-08-28T10:49:03.135Z,33.50
2022-08-28T10:51:44.249Z,33.60
2022-08-28T10:54:23.584Z,33.80
2022-08-28T10:56:59.528Z,33.90
2022-08-28T10:59:33.396Z,33.80
2022-08-28T11:02:13.608Z,33.90
2022-08-28T11:04:43.615Z,33.90
2022-08-28T11:07:21.420Z,34.10
2022-08-28T11:09:50.798Z,34.20
2022-08-28T11:12:42.574Z,34.30
2022-08-28T11:15:48.191Z,34.30
2022-08-28T11:18:50.052Z,34.40
2022-08-28T11:21:27.464Z,34.60
2022-08-28T11:24:04.582Z,34.90
2022-08-28T11:27:01.572Z,35.20
2022-08-28T11:30:26.800Z,35.20
2022-08-28T11:33:30.100Z,34.70
2022-08-28T11:35:59.820Z,34.70
2022-08-28T11:39:21.437Z,34.50
2022-08-28T11:42:38.304Z,34.50
2022-08-28T11:45:07.744Z,34.10
2022-08-28T11:47:49.338Z,33.60
2022-08-28T11:50:24.013Z,33.20
2022-08-28T11:53:38.460Z,32.90
2022-08-28T11:56:40.384Z,32.80
2022-08-28T11:59:36.033Z,32.90
2022-08-28T12:03:01.812Z,33.10
2022-08-28T12:05:51.088Z,33.20
2022-08-28T12:09:12.320Z,33.30
2022-08-28T12:11:59.629Z,33.30
2022-08-28T12:15:03.681Z,33.30
2022-08-28T12:17:57.268Z,33.10
2022-08-28T12:21:01.396Z,33.00
2022-08-28T12:23:40.743Z,33.10
2022-08-28T12:26:22.290Z,32.90
2022-08-28T12:28:55.463Z,32.60
2022-08-28T12:32:12.209Z,32.60
2022-08-28T12:35:07.576Z,32.60
2022-08-28T12:37:51.382Z,32.60
2022-08-28T12:40:26.045Z,32.80
2022-08-28T12:42:58.654Z,33.40
2022-08-28T12:45:31.725Z,33.40
2022-08-28T12:48:04.432Z,34.20
2022-08-28T12:50:37.087Z,34.90
2022-08-28T12:53:11.564Z,35.60
2022-08-28T12:55:41.183Z,35.90
2022-08-28T12:58:27.852Z,35.90
2022-08-28T13:01:00.569Z,35.40
2022-08-28T13:03:29.576Z,35.30
2022-08-28T13:06:05.012Z,35.40
2022-08-28T13:08:34.899Z,35.90
2022-08-28T13:11:04.274Z,36.10
2022-08-28T13:13:40.047Z,36.40
2022-08-28T13:16:10.583Z,36.60
2022-08-28T13:18:49.656Z,36.80
2022-08-28T13:21:34.849Z,37.00
2022-08-28T13:24:27.222Z,36.90
2022-08-28T13:27:06.992Z,36.80
2022-08-28T13:29:38.021Z,37.30
2022-08-28T13:32:09.832Z,37.30
2022-08-28T13:34:45.539Z,37.60
2022-08-28T13:37:44.078Z,37.80
2022-08-28T13:40:38.162Z,38.00
2022-08-28T13:43:07.449Z,37.90
2022-08-28T13:45:44.532Z,37.90
2022-08-28T13:48:14.428Z,37.60
2022-08-28T13:50:46.911Z,37.20
2022-08-28T13:53:18.068Z,36.60
2022-08-28T13:55:46.855Z,36.30
2022-08-28T13:58:15.750Z,36.20
2022-08-28T14:00:48.522Z,36.10
2022-08-28T14:03:34.301Z,36.20
2022-08-28T14:06:03.547Z,36.50
2022-08-28T14:08:32.219Z,36.50
2022-08-28T14:11:01.352Z,36.30
2022-08-28T14:13:29.975Z,36.00
2022-08-28T14:15:59.679Z,35.50
2022-08-28T14:18:28.688Z,35.10
2022-08-28T14:20:57.055Z,34.60
2022-08-28T14:23:25.394Z,34.30
2022-08-28T14:25:53.752Z,34.00
2022-08-28T14:28:22.064Z,33.90
2022-08-28T14:30:52.932Z,33.90
2022-08-28T14:33:22.677Z,34.20
2022-08-28T14:35:51.335Z,34.60
2022-08-28T14:38:19.620Z,34.90
2022-08-28T14:40:48.025Z,35.50
2022-08-28T14:43:17.167Z,35.50
2022-08-28T14:45:49.119Z,36.20
2022-08-28T14:48:19.537Z,36.70
2022-08-28T14:50:50.164Z,37.10
2022-08-28T14:53:18.684Z,37.30
2022-08-28T14:55:49.937Z,37.40
2022-08-28T14:58:20.617Z,37.60
2022-08-28T15:00:51.469Z,37.80
2022-08-28T15:03:21.733Z,37.70
2022-08-28T15:06:02.560Z,37.70
2022-08-28T15:08:31.385Z,37.60
2022-08-28T15:11:00.323Z,37.60
2022-08-28T15:13:31.426Z,37.60
2022-08-28T15:16:05.228Z,37.30
2022-08-28T15:18:45.870Z,37.20
2022-08-28T15:21:21.303Z,36.80
2022-08-28T15:23:50.480Z,35.90
2022-08-28T15:26:19.580Z,35.80
2022-08-28T15:28:48.000Z,35.90
2022-08-28T15:31:17.039Z,35.90
2022-08-28T15:33:45.672Z,36.10
2022-08-28T15:36:14.063Z,36.20
2022-08-28T15:39:06.367Z,36.20
2022-08-28T15:41:36.924Z,36.20
2022-08-28T15:44:06.552Z,36.10
2022-08-28T15:46:36.271Z,36.10
2022-08-28T15:49:07.816Z,36.10
2022-08-28T15:51:38.049Z,36.10
2022-08-28T15:54:09.264Z,36.20
2022-08-28T15:56:37.576Z,36.20
2022-08-28T15:59:05.928Z,36.10
2022-08-28T16:01:34.495Z,36.10
2022-08-28T16:04:02.884Z,36.00
2022-08-28T16:06:31.220Z,35.80
2022-08-28T16:08:59.527Z,35.80
2022-08-28T16:11:33.859Z,35.60
2022-08-28T16:14:05.478Z,35.70
2022-08-28T16:16:34.054Z,35.60
2022-08-28T16:19:02.777Z,35.40
2022-08-28T16:21:32.856Z,35.30
2022-08-28T16:24:01.364Z,35.10
2022-08-28T16:26:31.210Z,35.00
2022-08-28T16:31:29.034Z,34.70
2022-08-28T16:33:57.858Z,34.50
2022-08-28T16:36:26.174Z,34.10
2022-08-28T16:38:59.720Z,33.50
2022-08-28T16:41:33.656Z,33.20
2022-08-28T16:44:02.111Z,33.00
2022-08-28T16:48:59.586Z,32.80
2022-08-28T16:51:29.256Z,32.80
2022-08-28T16:53:58.311Z,32.80
2022-08-28T16:56:26.783Z,32.70
2022-08-28T16:58:57.908Z,32.60
2022-08-28T17:01:27.371Z,32.50
2022-08-28T17:03:56.516Z,32.40
2022-08-28T17:06:28.520Z,32.20
2022-08-28T17:08:58.221Z,32.20
2022-08-28T17:11:28.227Z,32.10
2022-08-28T17:13:58.142Z,31.90
2022-08-28T17:16:29.603Z,31.80
2022-08-28T17:18:58.688Z,31.60
2022-08-28T17:21:59.679Z,31.50
2022-08-28T17:24:28.305Z,31.20
2022-08-28T17:29:26.771Z,30.80
2022-08-28T17:34:29.967Z,30.40
2022-08-28T17:36:58.866Z,30.20
2022-08-28T17:39:27.192Z,29.90
2022-08-28T17:44:26.372Z,29.20
2022-08-28T17:46:54.957Z,28.90
2022-08-28T17:51:52.162Z,28.20
2022-08-28T17:54:24.163Z,27.90
2022-08-28T17:56:54.393Z,27.60
2022-08-28T17:59:24.376Z,27.30
2022-08-28T18:01:54.888Z,27.10
2022-08-28T18:04:24.808Z,26.90
2022-08-28T18:09:24.444Z,26.60
2022-08-28T18:11:53.744Z,26.40
2022-08-28T18:14:22.387Z,26.30
2022-08-28T18:19:21.399Z,25.90
2022-08-28T18:24:18.539Z,25.60
2022-08-28T18:26:47.428Z,25.60
2022-08-28T18:29:16.263Z,25.40
2022-08-28T18:31:44.685Z,25.30
2022-08-28T18:34:13.208Z,25.20
2022-08-28T18:36:43.003Z,25.10
2022-08-28T18:39:11.669Z,25.10
2022-08-28T18:44:15.176Z,24.90
2022-08-28T18:46:44.858Z,24.80
2022-08-28T18:49:14.370Z,24.70
2022-08-28T18:51:45.584Z,24.70
2022-08-28T18:54:17.108Z,24.60
2022-08-28T18:56:45.730Z,24.40
2022-08-28T19:06:44.408Z,24.10
2022-08-28T19:11:49.452Z,23.90
2022-08-28T19:16:47.106Z,23.70
2022-08-28T19:21:46.292Z,23.60
2022-08-28T19:26:46.507Z,23.50
2022-08-28T19:29:15.188Z,23.40
2022-08-28T19:31:44.461Z,23.20
2022-08-28T19:34:13.011Z,23.20
2022-08-28T19:36:41.741Z,23.10
2022-08-28T19:39:11.766Z,23.10
2022-08-28T19:41:40.673Z,23.00
2022-08-28T19:44:09.244Z,22.90
2022-08-28T19:46:39.258Z,22.80
2022-08-28T19:49:08.157Z,22.80
2022-08-28T19:51:38.732Z,22.70
2022-08-28T19:54:10.997Z,22.70
2022-08-28T19:56:41.775Z,22.60
2022-08-28T19:59:10.943Z,22.50
2022-08-28T20:01:46.318Z,22.50
2022-08-28T20:04:17.781Z,22.50
2022-08-28T20:06:46.685Z,22.40
2022-08-28T20:11:47.049Z,22.20
2022-08-28T20:14:17.320Z,22.20
2022-08-28T20:16:50.780Z,22.10
2022-08-28T20:19:20.658Z,22.10
2022-08-28T20:21:50.899Z,22.00
2022-08-28T20:24:23.628Z,22.00
2022-08-28T20:26:53.922Z,21.80
2022-08-28T20:29:24.022Z,21.80
2022-08-28T20:31:52.808Z,21.70
2022-08-28T20:34:22.070Z,21.60
2022-08-28T20:36:50.890Z,21.60
2022-08-28T20:39:20.559Z,21.50
2022-08-28T20:41:50.270Z,21.40
2022-08-28T20:44:22.063Z,21.30
2022-08-28T20:46:51.491Z,21.20
2022-08-28T20:51:56.784Z,21.10
2022-08-28T20:54:31.431Z,21.10
2022-08-28T20:57:02.964Z,21.00
2022-08-28T20:59:35.434Z,21.00
2022-08-28T21:02:11.333Z,20.90
2022-08-28T21:04:41.813Z,20.80
2022-08-28T21:07:11.261Z,20.80
2022-08-28T21:10:05.055Z,20.70
2022-08-28T21:14:59.713Z,20.70
2022-08-28T21:17:29.991Z,20.60
2022-08-28T21:20:01.324Z,20.60
2022-08-28T21:22:31.626Z,20.50
2022-08-28T21:25:00.151Z,20.50
2022-08-28T21:27:29.241Z,20.50
2022-08-28T21:29:59.994Z,20.40
2022-08-28T21:32:30.579Z,20.40
2022-08-28T21:39:56.552Z,20.30
2022-08-28T21:42:25.196Z,20.30
2022-08-28T21:47:25.442Z,20.30
2022-08-28T21:49:56.861Z,20.20
2022-08-28T21:52:29.799Z,20.20
2022-08-28T21:54:59.666Z,20.20
2022-08-28T21:57:29.313Z,20.10
2022-08-28T21:59:58.414Z,20.10
2022-08-28T22:02:28.884Z,20.00
2022-08-28T22:07:25.987Z,20.00
2022-08-28T22:09:54.324Z,20.00
2022-08-28T22:12:22.740Z,19.90
2022-08-28T22:14:51.109Z,19.90
2022-08-28T22:19:49.353Z,19.80
2022-08-28T22:22:35.656Z,19.80
2022-08-28T22:27:34.585Z,19.70
2022-08-28T22:30:02.904Z,19.70
2022-08-28T22:35:01.344Z,19.60
2022-08-28T22:37:29.708Z,19.60
2022-08-28T22:39:59.189Z,19.50
2022-08-28T22:42:27.607Z,19.50
2022-08-28T22:47:24.604Z,19.50
2022-08-28T22:49:55.879Z,19.40
2022-08-28T22:52:26.040Z,19.40
2022-08-28T22:54:55.299Z,19.40
2022-08-28T22:59:52.507Z,19.40
2022-08-28T23:02:22.874Z,19.30
2022-08-28T23:07:25.908Z,19.20
2022-08-28T23:09:54.220Z,19.20
2022-08-28T23:14:51.960Z,19.20
2022-08-28T23:17:20.927Z,19.10
2022-08-28T23:19:49.724Z,19.10
2022-08-28T23:22:19.136Z,19.10
2022-08-28T23:24:49.147Z,19.00
2022-08-28T23:30:08.571Z,19.00
2022-08-28T23:32:36.905Z,19.00
2022-08-28T23:35:07.227Z,18.90
2022-08-28T23:37:37.625Z,18.80
2022-08-28T23:40:15.550Z,18.80
2022-08-28T23:42:44.833Z,18.80
2022-08-28T23:45:16.091Z,18.80
2022-08-28T23:47:46.135Z,18.70
2022-08-28T23:50:19.468Z,18.70
2022-08-28T23:52:48.689Z,18.60
2022-08-28T23:55:20.808Z,18.60
2022-08-28T23:57:52.337Z,18.60
